Wetterdaten: Woche 22.06.15 - 28.06.15 (KW26)
Datum Zeit Temp. Aussen +5cm Feuchte Auss BlattFeu 1 Luftdruck Regen Sonnenschein Regendauer Solar Windben
22.06.2015 00:00 14,8 C 12,7 C 84 % 0 lf 1013,4 hPa 0,0 l/m 0,00 h 0,00 h 0 W/m 2,9 km/h (1 Bft)
22.06.2015 01:00 14,1 C 12,0 C 86 % 1 lf 1012,9 hPa 0,0 l/m 0,00 h 0,00 h 0 W/m 3,1 km/h (1 Bft)
22.06.2015 02:00 13,4 C 11,5 C 88 % 1 lf 1012,5 hPa 0,0 l/m 0,00 h 0,00 h 0 W/m 6,7 km/h (2 Bft)
22.06.2015 03:00 13,1 C 12,1 C 89 % 0 lf 1011,9 hPa 0,0 l/m 0,00 h 0,00 h 0 W/m 11,4 km/h (2 Bft)
22.06.2015 04:00 13,2 C 12,2 C 89 % 0 lf 1011,3 hPa 0,0 l/m 0,00 h 0,00 h 0 W/m 12,6 km/h (3 Bft)
22.06.2015 05:00 13,1 C 12,0 C 88 % 2 lf 1010,8 hPa 0,0 l/m 0,00 h 0,43 h 6 W/m 16,2 km/h (3 Bft)
22.06.2015 06:00 12,8 C 11,1 C 89 % 15 lf 1010,7 hPa 0,2 l/m 0,00 h 0,97 h 23 W/m 17,7 km/h (3 Bft)
22.06.2015 07:00 12,6 C 11,1 C 92 % 15 lf 1010,5 hPa 0,4 l/m 0,00 h 1,00 h 44 W/m 17,3 km/h (3 Bft)
22.06.2015 08:00 12,5 C 11,2 C 94 % 15 lf 1010,3 hPa 0,8 l/m 0,00 h 1,00 h 64 W/m 15,7 km/h (3 Bft)
22.06.2015 09:00 12,8 C 11,7 C 95 % 15 lf 1009,9 hPa 0,4 l/m 0,00 h 1,00 h 115 W/m 14,9 km/h (3 Bft)
22.06.2015 10:00 12,9 C 11,7 C 96 % 15 lf 1009,4 hPa 2,2 l/m 0,00 h 1,00 h 78 W/m 12,4 km/h (3 Bft)
22.06.2015 11:00 12,8 C 11,7 C 96 % 15 lf 1009,0 hPa 1,0 l/m 0,00 h 1,00 h 159 W/m 17,8 km/h (3 Bft)
22.06.2015 12:00 12,9 C 11,7 C 95 % 15 lf 1008,7 hPa 0,2 l/m 0,00 h 0,97 h 206 W/m 18,2 km/h (3 Bft)
22.06.2015 13:00 13,0 C 11,7 C 94 % 15 lf 1008,5 hPa 0,2 l/m 0,00 h 0,90 h 181 W/m 21,7 km/h (4 Bft)
22.06.2015 14:00 13,0 C 11,7 C 94 % 15 lf 1008,1 hPa 0,4 l/m 0,00 h 1,00 h 212 W/m 21,7 km/h (4 Bft)
22.06.2015 15:00 13,3 C 12,1 C 93 % 11 lf 1007,6 hPa 0,0 l/m 0,17 h 0,77 h 293 W/m 20,7 km/h (4 Bft)
22.06.2015 16:00 14,1 C 12,4 C 91 % 0 lf 1007,1 hPa 0,0 l/m 0,07 h 0,00 h 253 W/m 22,7 km/h (4 Bft)
22.06.2015 17:00 14,6 C 12,8 C 88 % 0 lf 1006,3 hPa 0,0 l/m 0,63 h 0,00 h 377 W/m 19,9 km/h (4 Bft)
22.06.2015 18:00 14,3 C 11,2 C 85 % 8 lf 1005,9 hPa 1,2 l/m 0,00 h 0,53 h 52 W/m 13,9 km/h (3 Bft)
22.06.2015 19:00 12,3 C 10,0 C 89 % 15 lf 1005,5 hPa 8,4 l/m 0,00 h 1,00 h 8 W/m 9,5 km/h (2 Bft)
22.06.2015 20:00 10,9 C 9,5 C 92 % 15 lf 1005,6 hPa 2,8 l/m 0,00 h 1,00 h 9 W/m 7,1 km/h (2 Bft)
22.06.2015 21:00 10,7 C 9,4 C 94 % 15 lf 1005,7 hPa 2,0 l/m 0,00 h 1,00 h 7 W/m 5,0 km/h (1 Bft)
22.06.2015 22:00 10,1 C 8,7 C 95 % 15 lf 1005,8 hPa 0,2 l/m 0,00 h 0,00 h 5 W/m 7,8 km/h (2 Bft)
22.06.2015 23:00 9,6 C 8,3 C 96 % 15 lf 1006,3 hPa 0,0 l/m 0,00 h 0,00 h 0 W/m 13,1 km/h (3 Bft)
23.06.2015 00:00 9,4 C 8,4 C 96 % 15 lf 1006,8 hPa 0,0 l/m 0,00 h 0,00 h 0 W/m 13,3 km/h (3 Bft)
23.06.2015 01:00 9,6 C 8,7 C 97 % 15 lf 1007,0 hPa 0,0 l/m 0,00 h 0,00 h 0 W/m 12,4 km/h (3 Bft)
23.06.2015 02:00 9,3 C 8,3 C 97 % 15 lf 1007,5 hPa 0,0 l/m 0,00 h 0,00 h 0 W/m 13,7 km/h (3 Bft)
23.06.2015 03:00 9,4 C 8,8 C 98 % 15 lf 1008,1 hPa 0,0 l/m 0,00 h 0,00 h 0 W/m 13,4 km/h (3 Bft)
23.06.2015 04:00 9,5 C 8,8 C 98 % 15 lf 1008,4 hPa 0,0 l/m 0,00 h 0,00 h 0 W/m 11,2 km/h (2 Bft)
23.06.2015 05:00 9,6 C 8,9 C 98 % 15 lf 1008,9 hPa 1,0 l/m 0,00 h 0,50 h 13 W/m 10,1 km/h (2 Bft)
23.06.2015 06:00 10,0 C 9,2 C 98 % 15 lf 1009,3 hPa 0,2 l/m 0,00 h 0,45 h 28 W/m 10,8 km/h (2 Bft)
23.06.2015 07:00 10,6 C 9,8 C 98 % 15 lf 1009,7 hPa 0,2 l/m 0,37 h 0,30 h 153 W/m 14,9 km/h (3 Bft)
23.06.2015 08:00 11,3 C 10,5 C 99 % 15 lf 1010,3 hPa 0,0 l/m 0,47 h 0,00 h 267 W/m 16,3 km/h (3 Bft)
23.06.2015 09:00 12,4 C 11,1 C 98 % 8 lf 1010,7 hPa 0,0 l/m 0,33 h 0,23 h 261 W/m 14,4 km/h (3 Bft)
23.06.2015 10:00 13,8 C 13,3 C 93 % 2 lf 1011,1 hPa 0,0 l/m 0,53 h 0,00 h 501 W/m 16,4 km/h (3 Bft)
23.06.2015 11:00 15,2 C 13,7 C 82 % 0 lf 1011,5 hPa 0,0 l/m 0,37 h 0,07 h 420 W/m 18,4 km/h (3 Bft)
23.06.2015 12:00 15,9 C 14,7 C 77 % 4 lf 1012,0 hPa 0,2 l/m 0,17 h 0,33 h 258 W/m 22,9 km/h (4 Bft)
23.06.2015 13:00 13,9 C 11,6 C 86 % 15 lf 1012,9 hPa 0,6 l/m 0,00 h 1,00 h 188 W/m 19,0 km/h (3 Bft)
23.06.2015 14:00 13,6 C 11,8 C 91 % 15 lf 1013,3 hPa 0,2 l/m 0,00 h 0,83 h 158 W/m 13,4 km/h (3 Bft)
23.06.2015 15:00 13,5 C 12,0 C 92 % 15 lf 1013,8 hPa 0,2 l/m 0,00 h 0,33 h 117 W/m 14,4 km/h (3 Bft)
23.06.2015 16:00 14,2 C 12,8 C 93 % 6 lf 1014,1 hPa 0,0 l/m 0,03 h 0,10 h 201 W/m 17,2 km/h (3 Bft)
23.06.2015 17:00 14,8 C 12,7 C 84 % 0 lf 1014,6 hPa 0,0 l/m 0,00 h 0,00 h 133 W/m 21,9 km/h (4 Bft)
23.06.2015 18:00 14,8 C 12,3 C 80 % 0 lf 1015,2 hPa 0,0 l/m 0,00 h 0,00 h 85 W/m 22,1 km/h (4 Bft)
23.06.2015 19:00 14,3 C 12,5 C 80 % 0 lf 1016,0 hPa 0,0 l/m 0,00 h 0,00 h 51 W/m 23,8 km/h (4 Bft)
23.06.2015 20:00 13,7 C 12,1 C 83 % 0 lf 1016,7 hPa 0,0 l/m 0,00 h 0,00 h 26 W/m 19,5 km/h (3 Bft)
23.06.2015 21:00 13,1 C 11,6 C 86 % 0 lf 1017,4 hPa 0,0 l/m 0,00 h 0,00 h 10 W/m 20,1 km/h (4 Bft)
23.06.2015 22:00 12,5 C 10,8 C 90 % 8 lf 1018,2 hPa 0,0 l/m 0,00 h 0,30 h 0 W/m 14,6 km/h (3 Bft)
23.06.2015 23:00 12,0 C 10,6 C 93 % 13 lf 1018,7 hPa 0,0 l/m 0,00 h 0,00 h 0 W/m 12,2 km/h (2 Bft)
24.06.2015 00:00 11,8 C 10,6 C 93 % 1 lf 1019,0 hPa 0,0 l/m 0,00 h 0,00 h 0 W/m 11,0 km/h (2 Bft)
24.06.2015 01:00 11,8 C 10,6 C 94 % 0 lf 1019,2 hPa 0,0 l/m 0,00 h 0,03 h 0 W/m 10,6 km/h (2 Bft)
24.06.2015 02:00 11,6 C 10,6 C 94 % 0 lf 1019,4 hPa 0,2 l/m 0,00 h 0,00 h 0 W/m 9,7 km/h (2 Bft)
24.06.2015 03:00 11,5 C 10,6 C 95 % 0 lf 1019,6 hPa 0,0 l/m 0,00 h 0,00 h 0 W/m 9,0 km/h (2 Bft)
24.06.2015 04:00 11,5 C 10,6 C 95 % 0 lf 1019,8 hPa 0,0 l/m 0,00 h 0,00 h 0 W/m 8,2 km/h (2 Bft)
24.06.2015 05:00 11,5 C 10,6 C 95 % 0 lf 1020,4 hPa 0,0 l/m 0,00 h 0,00 h 7 W/m 7,2 km/h (2 Bft)
24.06.2015 06:00 11,5 C 10,6 C 95 % 0 lf 1020,7 hPa 0,0 l/m 0,00 h 0,00 h 16 W/m 8,2 km/h (2 Bft)
24.06.2015 07:00 11,6 C 11,0 C 94 % 0 lf 1021,1 hPa 0,0 l/m 0,00 h 0,00 h 32 W/m 7,6 km/h (2 Bft)
24.06.2015 08:00 11,9 C 11,5 C 93 % 0 lf 1021,5 hPa 0,0 l/m 0,00 h 0,00 h 60 W/m 8,3 km/h (2 Bft)
24.06.2015 09:00 12,3 C 11,9 C 91 % 0 lf 1021,9 hPa 0,0 l/m 0,00 h 0,00 h 106 W/m 10,6 km/h (2 Bft)
24.06.2015 10:00 13,0 C 12,2 C 87 % 0 lf 1022,0 hPa 0,0 l/m 0,00 h 0,00 h 124 W/m 9,6 km/h (2 Bft)
24.06.2015 11:00 13,7 C 13,4 C 84 % 0 lf 1022,0 hPa 0,0 l/m 0,00 h 0,00 h 215 W/m 11,9 km/h (2 Bft)
24.06.2015 12:00 15,3 C 15,3 C 78 % 0 lf 1022,1 hPa 0,0 l/m 0,20 h 0,00 h 374 W/m 10,8 km/h (2 Bft)
24.06.2015 13:00 16,8 C 16,3 C 74 % 0 lf 1022,1 hPa 0,0 l/m 0,40 h 0,00 h 434 W/m 10,7 km/h (2 Bft)
24.06.2015 14:00 18,6 C 18,1 C 68 % 0 lf 1021,9 hPa 0,0 l/m 0,67 h 0,00 h 603 W/m 12,5 km/h (3 Bft)
24.06.2015 15:00 20,5 C 19,4 C 64 % 0 lf 1021,6 hPa 0,0 l/m 0,80 h 0,00 h 714 W/m 14,1 km/h (3 Bft)
24.06.2015 16:00 21,3 C 20,6 C 61 % 0 lf 1021,1 hPa 0,0 l/m 0,97 h 0,00 h 684 W/m 14,6 km/h (3 Bft)
24.06.2015 17:00 21,8 C 19,4 C 59 % 0 lf 1020,8 hPa 0,0 l/m 0,90 h 0,00 h 529 W/m 13,0 km/h (3 Bft)
24.06.2015 18:00 21,0 C 18,6 C 61 % 0 lf 1020,8 hPa 0,0 l/m 0,95 h 0,00 h 349 W/m 12,3 km/h (3 Bft)
24.06.2015 19:00 20,2 C 18,1 C 64 % 0 lf 1020,8 hPa 0,0 l/m 0,83 h 0,00 h 193 W/m 11,5 km/h (2 Bft)
24.06.2015 20:00 19,7 C 17,3 C 65 % 0 lf 1021,0 hPa 0,0 l/m 0,40 h 0,00 h 94 W/m 9,6 km/h (2 Bft)
24.06.2015 21:00 18,5 C 14,6 C 68 % 0 lf 1021,1 hPa 0,0 l/m 0,00 h 0,00 h 14 W/m 5,2 km/h (1 Bft)
24.06.2015 22:00 16,8 C 12,8 C 75 % 0 lf 1021,4 hPa 0,0 l/m 0,00 h 0,00 h 0 W/m 4,5 km/h (1 Bft)
24.06.2015 23:00 15,1 C 11,9 C 82 % 0 lf 1021,5 hPa 0,0 l/m 0,00 h 0,00 h 0 W/m 6,3 km/h (2 Bft)
25.06.2015 00:00 14,0 C 11,4 C 85 % 0 lf 1021,6 hPa 0,0 l/m 0,00 h 0,00 h 0 W/m 6,6 km/h (2 Bft)
25.06.2015 01:00 13,4 C 11,0 C 87 % 0 lf 1021,7 hPa 0,0 l/m 0,00 h 0,00 h 0 W/m 4,3 km/h (1 Bft)
25.06.2015 02:00 12,6 C 10,5 C 87 % 0 lf 1021,7 hPa 0,0 l/m 0,00 h 0,00 h 0 W/m 0,8 km/h (0 Bft)
25.06.2015 03:00 12,2 C 10,6 C 91 % 0 lf 1021,5 hPa 0,0 l/m 0,00 h 0,00 h 0 W/m 3,1 km/h (1 Bft)
25.06.2015 04:00 12,1 C 10,7 C 92 % 0 lf 1021,3 hPa 0,0 l/m 0,00 h 0,00 h 0 W/m 5,5 km/h (1 Bft)
25.06.2015 05:00 11,9 C 10,7 C 93 % 0 lf 1021,3 hPa 0,0 l/m 0,00 h 0,00 h 13 W/m 8,0 km/h (2 Bft)
25.06.2015 06:00 12,1 C 11,5 C 94 % 0 lf 1021,3 hPa 0,0 l/m 0,68 h 0,00 h 86 W/m 9,2 km/h (2 Bft)
25.06.2015 07:00 12,9 C 12,7 C 94 % 0 lf 1021,6 hPa 0,0 l/m 0,50 h 0,00 h 141 W/m 8,7 km/h (2 Bft)
25.06.2015 08:00 14,5 C 14,5 C 92 % 0 lf 1021,8 hPa 0,0 l/m 0,20 h 0,00 h 204 W/m 8,7 km/h (2 Bft)
25.06.2015 09:00 16,6 C 16,3 C 86 % 0 lf 1021,9 hPa 0,0 l/m 0,80 h 0,00 h 401 W/m 6,9 km/h (2 Bft)
25.06.2015 10:00 21,1 C 23,0 C 71 % 0 lf 1021,9 hPa 0,0 l/m 1,00 h 0,00 h 757 W/m 9,0 km/h (2 Bft)
25.06.2015 11:00 23,6 C 25,7 C 60 % 0 lf 1021,7 hPa 0,0 l/m 0,97 h 0,00 h 837 W/m 11,9 km/h (2 Bft)
25.06.2015 12:00 24,9 C 26,5 C 55 % 0 lf 1021,5 hPa 0,0 l/m 0,98 h 0,00 h 889 W/m 14,4 km/h (3 Bft)
25.06.2015 13:00 25,3 C 23,4 C 54 % 0 lf 1021,2 hPa 0,0 l/m 0,53 h 0,00 h 573 W/m 15,2 km/h (3 Bft)
25.06.2015 14:00 25,7 C 24,2 C 53 % 0 lf 1021,1 hPa 0,0 l/m 0,90 h 0,00 h 871 W/m 16,9 km/h (3 Bft)
25.06.2015 15:00 26,9 C 25,9 C 48 % 0 lf 1020,9 hPa 0,0 l/m 0,97 h 0,00 h 800 W/m 17,1 km/h (3 Bft)
25.06.2015 16:00 27,0 C 25,8 C 48 % 0 lf 1020,9 hPa 0,0 l/m 0,97 h 0,00 h 591 W/m 13,9 km/h (3 Bft)
25.06.2015 17:00 26,6 C 24,2 C 49 % 0 lf 1020,8 hPa 0,0 l/m 0,93 h 0,00 h 583 W/m 13,1 km/h (3 Bft)
25.06.2015 18:00 25,3 C 22,2 C 49 % 0 lf 1020,6 hPa 0,0 l/m 0,97 h 0,00 h 407 W/m 14,1 km/h (3 Bft)
25.06.2015 19:00 24,1 C 21,2 C 52 % 0 lf 1020,6 hPa 0,0 l/m 0,33 h 0,00 h 149 W/m 8,9 km/h (2 Bft)
25.06.2015 20:00 23,1 C 15,9 C 56 % 0 lf 1020,7 hPa 0,0 l/m 0,80 h 0,00 h 102 W/m 6,7 km/h (2 Bft)
25.06.2015 21:00 21,9 C 14,3 C 60 % 0 lf 1020,8 hPa 0,0 l/m 0,00 h 0,00 h 16 W/m 5,4 km/h (1 Bft)
25.06.2015 22:00 20,0 C 13,9 C 65 % 0 lf 1021,1 hPa 0,0 l/m 0,00 h 0,00 h 4 W/m 3,2 km/h (1 Bft)
25.06.2015 23:00 18,1 C 13,7 C 73 % 0 lf 1021,2 hPa 0,0 l/m 0,00 h 0,00 h 0 W/m 1,6 km/h (1 Bft)
26.06.2015 00:00 16,6 C 13,3 C 79 % 0 lf 1021,1 hPa 0,0 l/m 0,00 h 0,00 h 0 W/m 1,4 km/h (1 Bft)
26.06.2015 01:00 15,8 C 13,6 C 85 % 0 lf 1020,7 hPa 0,0 l/m 0,00 h 0,00 h 0 W/m 2,2 km/h (1 Bft)
26.06.2015 02:00 15,6 C 13,7 C 87 % 0 lf 1020,5 hPa 0,0 l/m 0,00 h 0,00 h 0 W/m 1,7 km/h (1 Bft)
26.06.2015 03:00 15,2 C 12,8 C 87 % 0 lf 1020,2 hPa 0,0 l/m 0,00 h 0,00 h 0 W/m 0,7 km/h (0 Bft)
26.06.2015 04:00 14,6 C 12,8 C 89 % 0 lf 1019,8 hPa 0,0 l/m 0,00 h 0,00 h 0 W/m 1,5 km/h (1 Bft)
26.06.2015 05:00 14,4 C 12,8 C 91 % 0 lf 1019,5 hPa 0,0 l/m 0,00 h 0,00 h 14 W/m 3,8 km/h (1 Bft)
26.06.2015 06:00 14,6 C 13,8 C 92 % 0 lf 1019,5 hPa 0,0 l/m 0,00 h 0,00 h 49 W/m 5,4 km/h (1 Bft)
26.06.2015 07:00 15,6 C 15,2 C 91 % 0 lf 1019,4 hPa 0,0 l/m 0,00 h 0,00 h 109 W/m 9,1 km/h (2 Bft)
26.06.2015 08:00 17,0 C 16,7 C 88 % 0 lf 1019,4 hPa 0,0 l/m 0,57 h 0,00 h 243 W/m 8,2 km/h (2 Bft)
26.06.2015 09:00 20,1 C 18,1 C 80 % 0 lf 1019,2 hPa 0,0 l/m 1,00 h 0,00 h 490 W/m 10,8 km/h (2 Bft)
26.06.2015 10:00 23,9 C 19,2 C 66 % 0 lf 1018,7 hPa 0,0 l/m 0,87 h 0,00 h 526 W/m 14,0 km/h (3 Bft)
26.06.2015 11:00 24,9 C 22,6 C 64 % 0 lf 1018,5 hPa 0,0 l/m 0,87 h 0,00 h 608 W/m 15,0 km/h (3 Bft)
26.06.2015 12:00 26,8 C 27,6 C 57 % 0 lf 1018,5 hPa 0,0 l/m 0,97 h 0,00 h 782 W/m 19,4 km/h (3 Bft)
26.06.2015 13:00 27,9 C 26,7 C 50 % 0 lf 1018,2 hPa 0,0 l/m 1,00 h 0,00 h 772 W/m 18,7 km/h (3 Bft)
26.06.2015 14:00 27,6 C 26,1 C 51 % 0 lf 1018,1 hPa 0,0 l/m 1,00 h 0,00 h 587 W/m 19,4 km/h (3 Bft)
26.06.2015 15:00 27,1 C 25,1 C 52 % 0 lf 1017,9 hPa 0,0 l/m 0,03 h 0,00 h 329 W/m 16,2 km/h (3 Bft)
26.06.2015 16:00 26,8 C 25,2 C 55 % 0 lf 1017,5 hPa 0,0 l/m 0,63 h 0,00 h 367 W/m 10,2 km/h (2 Bft)
26.06.2015 17:00 26,9 C 24,6 C 57 % 0 lf 1017,1 hPa 0,0 l/m 0,17 h 0,00 h 264 W/m 8,7 km/h (2 Bft)
26.06.2015 18:00 26,7 C 24,2 C 58 % 0 lf 1016,7 hPa 0,0 l/m 0,17 h 0,00 h 198 W/m 7,1 km/h (2 Bft)
26.06.2015 19:00 26,2 C 23,5 C 59 % 0 lf 1016,3 hPa 0,0 l/m 0,00 h 0,00 h 123 W/m 8,4 km/h (2 Bft)
26.06.2015 20:00 25,3 C 22,1 C 60 % 0 lf 1016,0 hPa 0,0 l/m 0,00 h 0,00 h 41 W/m 8,3 km/h (2 Bft)
26.06.2015 21:00 24,3 C 20,8 C 64 % 0 lf 1015,7 hPa 0,0 l/m 0,00 h 0,10 h 11 W/m 8,5 km/h (2 Bft)
26.06.2015 22:00 23,4 C 20,6 C 68 % 0 lf 1015,5 hPa 0,0 l/m 0,00 h 0,03 h 0 W/m 10,7 km/h (2 Bft)
26.06.2015 23:00 22,9 C 19,8 C 68 % 0 lf 1015,0 hPa 0,0 l/m 0,00 h 0,17 h 0 W/m 8,4 km/h (2 Bft)
27.06.2015 00:00 22,2 C 19,5 C 69 % 0 lf 1014,6 hPa 0,0 l/m 0,00 h 0,17 h 0 W/m 10,4 km/h (2 Bft)
27.06.2015 01:00 21,6 C 17,9 C 73 % 2 lf 1014,3 hPa 0,0 l/m 0,00 h 0,63 h 0 W/m 13,1 km/h (3 Bft)
27.06.2015 02:00 20,6 C 17,0 C 79 % 6 lf 1013,9 hPa 0,2 l/m 0,00 h 0,47 h 0 W/m 8,7 km/h (2 Bft)
27.06.2015 03:00 19,4 C 16,4 C 87 % 15 lf 1013,8 hPa 2,8 l/m 0,00 h 0,53 h 0 W/m 10,5 km/h (2 Bft)
27.06.2015 04:00 18,2 C 16,1 C 92 % 15 lf 1013,8 hPa 0,0 l/m 0,00 h 0,03 h 0 W/m 4,7 km/h (1 Bft)
27.06.2015 05:00 17,8 C 16,1 C 94 % 15 lf 1013,6 hPa 0,0 l/m 0,00 h 0,07 h 7 W/m 7,3 km/h (2 Bft)
27.06.2015 06:00 17,2 C 15,4 C 95 % 15 lf 1014,1 hPa 1,6 l/m 0,00 h 0,17 h 27 W/m 9,2 km/h (2 Bft)
27.06.2015 07:00 16,9 C 15,5 C 95 % 15 lf 1014,3 hPa 0,0 l/m 0,63 h 0,00 h 186 W/m 10,9 km/h (2 Bft)
27.06.2015 08:00 17,7 C 15,9 C 93 % 3 lf 1014,7 hPa 0,0 l/m 0,40 h 0,00 h 207 W/m 15,5 km/h (3 Bft)
27.06.2015 09:00 19,0 C 16,9 C 86 % 0 lf 1015,0 hPa 0,0 l/m 0,77 h 0,00 h 358 W/m 16,7 km/h (3 Bft)
27.06.2015 10:00 19,8 C 17,8 C 83 % 0 lf 1015,3 hPa 0,0 l/m 0,00 h 0,00 h 183 W/m 16,7 km/h (3 Bft)
27.06.2015 11:00 20,3 C 20,0 C 82 % 0 lf 1015,8 hPa 0,0 l/m 0,30 h 0,00 h 397 W/m 18,7 km/h (3 Bft)
27.06.2015 12:00 21,6 C 21,0 C 77 % 0 lf 1016,2 hPa 0,0 l/m 0,37 h 0,13 h 406 W/m 19,7 km/h (3 Bft)
27.06.2015 13:00 22,2 C 21,2 C 76 % 2 lf 1016,6 hPa 0,0 l/m 0,38 h 0,17 h 427 W/m 19,6 km/h (3 Bft)
27.06.2015 14:00 23,5 C 22,4 C 66 % 0 lf 1016,7 hPa 0,0 l/m 0,50 h 0,00 h 541 W/m 24,9 km/h (4 Bft)
27.06.2015 15:00 24,4 C 23,8 C 59 % 0 lf 1017,1 hPa 0,0 l/m 0,70 h 0,00 h 679 W/m 27,8 km/h (4 Bft)
27.06.2015 16:00 25,0 C 24,0 C 53 % 0 lf 1017,3 hPa 0,0 l/m 0,87 h 0,00 h 704 W/m 27,3 km/h (4 Bft)
27.06.2015 17:00 24,9 C 22,6 C 50 % 0 lf 1017,9 hPa 0,0 l/m 0,97 h 0,00 h 607 W/m 26,2 km/h (4 Bft)
27.06.2015 18:00 22,7 C 20,1 C 53 % 0 lf 1018,7 hPa 0,0 l/m 0,57 h 0,00 h 306 W/m 21,8 km/h (4 Bft)
27.06.2015 19:00 21,7 C 19,6 C 54 % 0 lf 1018,9 hPa 0,0 l/m 1,00 h 0,00 h 277 W/m 21,0 km/h (4 Bft)
27.06.2015 20:00 20,9 C 18,3 C 56 % 0 lf 1019,4 hPa 0,0 l/m 0,87 h 0,00 h 108 W/m 14,4 km/h (3 Bft)
27.06.2015 21:00 19,5 C 16,1 C 62 % 0 lf 1020,1 hPa 0,0 l/m 0,03 h 0,00 h 20 W/m 8,2 km/h (2 Bft)
27.06.2015 22:00 17,6 C 13,7 C 68 % 0 lf 1020,7 hPa 0,0 l/m 0,00 h 0,00 h 4 W/m 3,1 km/h (1 Bft)
27.06.2015 23:00 15,8 C 12,6 C 73 % 0 lf 1021,0 hPa 0,0 l/m 0,00 h 0,00 h 0 W/m 2,9 km/h (1 Bft)
28.06.2015 00:00 14,6 C 12,1 C 79 % 0 lf 1021,2 hPa 0,0 l/m 0,00 h 0,00 h 0 W/m 2,2 km/h (1 Bft)
28.06.2015 01:00 13,9 C 12,4 C 82 % 0 lf 1021,5 hPa 0,0 l/m 0,00 h 0,00 h 0 W/m 3,1 km/h (1 Bft)
28.06.2015 02:00 13,7 C 11,7 C 83 % 0 lf 1021,3 hPa 0,0 l/m 0,00 h 0,00 h 0 W/m 0,3 km/h (0 Bft)
28.06.2015 03:00 12,8 C 10,5 C 85 % 1 lf 1021,3 hPa 0,0 l/m 0,00 h 0,00 h 5 W/m 1,9 km/h (1 Bft)
28.06.2015 04:00 11,8 C 9,8 C 87 % 3 lf 1021,4 hPa 0,0 l/m 0,00 h 0,00 h 5 W/m 0,9 km/h (0 Bft)
28.06.2015 05:00 11,1 C 9,4 C 89 % 11 lf 1021,5 hPa 0,0 l/m 0,33 h 0,00 h 18 W/m 0,7 km/h (0 Bft)
28.06.2015 06:00 10,8 C 9,9 C 91 % 13 lf 1021,8 hPa 0,0 l/m 0,82 h 0,00 h 94 W/m 0,8 km/h (0 Bft)
28.06.2015 07:00 11,8 C 11,7 C 94 % 2 lf 1021,9 hPa 0,0 l/m 1,00 h 0,00 h 266 W/m 2,7 km/h (1 Bft)
28.06.2015 08:00 14,5 C 14,2 C 90 % 0 lf 1022,0 hPa 0,0 l/m 1,00 h 0,00 h 425 W/m 7,5 km/h (2 Bft)
28.06.2015 09:00 19,2 C 17,4 C 70 % 0 lf 1021,7 hPa 0,0 l/m 1,00 h 0,00 h 603 W/m 9,7 km/h (2 Bft)
28.06.2015 10:00 22,2 C 22,3 C 60 % 0 lf 1021,6 hPa 0,0 l/m 1,00 h 0,00 h 561 W/m 8,3 km/h (2 Bft)
28.06.2015 11:00 23,6 C 26,2 C 54 % 0 lf 1021,3 hPa 0,0 l/m 1,00 h 0,00 h 813 W/m 14,1 km/h (3 Bft)
28.06.2015 12:00 24,4 C 26,5 C 51 % 0 lf 1020,8 hPa 0,0 l/m 1,00 h 0,00 h 746 W/m 14,9 km/h (3 Bft)
28.06.2015 13:00 24,7 C 24,1 C 49 % 0 lf 1020,4 hPa 0,0 l/m 0,87 h 0,00 h 544 W/m 13,9 km/h (3 Bft)
28.06.2015 14:00 24,4 C 23,7 C 49 % 0 lf 1020,3 hPa 0,0 l/m 0,57 h 0,00 h 446 W/m 11,5 km/h (2 Bft)
28.06.2015 15:00 25,2 C 24,4 C 48 % 0 lf 1020,0 hPa 0,0 l/m 0,90 h 0,00 h 480 W/m 8,7 km/h (2 Bft)
28.06.2015 16:00 25,1 C 23,8 C 49 % 0 lf 1019,8 hPa 0,0 l/m 0,37 h 0,00 h 345 W/m 6,4 km/h (2 Bft)
28.06.2015 17:00 25,2 C 23,6 C 50 % 0 lf 1019,7 hPa 0,0 l/m 0,70 h 0,00 h 387 W/m 7,7 km/h (2 Bft)
28.06.2015 18:00 24,9 C 18,0 C 51 % 0 lf 1019,3 hPa 0,0 l/m 0,97 h 0,00 h 358 W/m 10,8 km/h (2 Bft)
28.06.2015 19:00 24,2 C 20,5 C 54 % 0 lf 1018,9 hPa 0,0 l/m 0,10 h 0,00 h 129 W/m 12,2 km/h (2 Bft)
28.06.2015 20:00 23,3 C 20,2 C 58 % 0 lf 1018,6 hPa 0,0 l/m 0,00 h 0,00 h 51 W/m 8,6 km/h (2 Bft)
28.06.2015 21:00 22,4 C 19,1 C 60 % 0 lf 1018,7 hPa 0,0 l/m 0,00 h 0,17 h 11 W/m 5,2 km/h (1 Bft)
28.06.2015 22:00 21,4 C 18,3 C 64 % 0 lf 1018,7 hPa 0,0 l/m 0,00 h 0,00 h 5 W/m 5,7 km/h (1 Bft)
28.06.2015 23:00 20,6 C 17,8 C 67 % 0 lf 1018,7 hPa 0,0 l/m 0,00 h 0,00 h 0 W/m 3,6 km/h (1 Bft)
Min-Datum _ 23.06.15 22.06.15 25.06.15 22.06.15 22.06.15 - - - - 22.06.15
_ Min-Zeit 02:16 22:38 15:52 00:00 19:20 - - - - 01:46
Minimum _ 9,2 C 8,3 C 45 % 0 lf 1005,4 hPa - - - - 0,0 km/h (0 Bft)
Max-Datum _ 26.06.15 25.06.15 23.06.15 22.06.15 24.06.15 22.06.15 22.06.15 22.06.15 27.06.15 23.06.15
_ Max-Zeit 13:48 15:58 07:40 06:08 12:08 19:40 15:50 05:34 14:02 19:36
Maximum _ 28,2 C 29,4 C 99 % 15 lf 1022,2 hPa 8,4 l/m 0,03 h 0,03 h 1143 W/m 41,8 km/h
W-NW (6 Bft)
Durchschnitt _ 17,4 C 15,7 C 78 % 3 lf 1016,9 hPa #27,8 l/m #48:01 h #20:53 h 273 W/m 11,3 km/h (2 Bft)
© 2015 W. Hausmann